Wetterdaten: Woche 11.05.09 - 17.05.09 (KW20)
Datum Zeit Temp. A. Feuchte A. Luftdruck Regen Wind Richtung Taupunkt Windchill Windben
11.05.2009 00:00 15,1 C 78 % 1016,4 hPa 0,0 l/m 0,0 km/h N 11,2 C 15,1 C 1,6 km/h
11.05.2009 01:00 13,9 C 83 % 1016,2 hPa 0,0 l/m 0,0 km/h N 10,9 C 13,9 C 1,6 km/h
11.05.2009 02:00 14,1 C 81 % 1015,8 hPa 0,0 l/m 0,0 km/h N 10,9 C 14,1 C 1,6 km/h
11.05.2009 03:00 14,4 C 80 % 1015,6 hPa 0,0 l/m 0,0 km/h N 10,9 C 14,4 C 0,0 km/h
11.05.2009 04:00 14,4 C 82 % 1015,7 hPa 0,0 l/m 0,0 km/h N 11,3 C 14,4 C 0,8 km/h
11.05.2009 05:00 13,3 C 86 % 1015,4 hPa 0,0 l/m 0,0 km/h N 11,0 C 13,3 C 0,0 km/h
11.05.2009 06:00 12,9 C 88 % 1015,3 hPa 0,0 l/m 0,0 km/h N 11,0 C 12,9 C 0,0 km/h
11.05.2009 07:00 15,3 C 84 % 1015,0 hPa 0,0 l/m 0,0 km/h N 12,5 C 15,3 C 0,0 km/h
11.05.2009 08:00 17,5 C 76 % 1014,7 hPa 0,0 l/m 0,0 km/h N 13,1 C 17,5 C 1,6 km/h
11.05.2009 09:00 19,3 C 71 % 1014,3 hPa 0,0 l/m 0,0 km/h N 13,7 C 19,3 C 4,0 km/h
11.05.2009 10:00 20,4 C 68 % 1014,3 hPa 0,0 l/m 0,0 km/h O-NO 14,3 C 20,4 C 3,2 km/h
11.05.2009 11:00 22,0 C 67 % 1014,0 hPa 0,0 l/m 1,6 km/h O 15,6 C 22,0 C 4,8 km/h
11.05.2009 12:00 22,8 C 60 % 1013,7 hPa 0,0 l/m 0,8 km/h N 14,7 C 22,8 C 4,0 km/h
11.05.2009 13:00 23,5 C 57 % 1013,3 hPa 0,0 l/m 0,0 km/h O 14,5 C 23,5 C 4,0 km/h
11.05.2009 14:00 26,4 C 42 % 1012,7 hPa 0,0 l/m 3,2 km/h NW 12,1 C 26,4 C 17,7 km/h
11.05.2009 15:00 25,8 C 43 % 1012,4 hPa 0,0 l/m 5,3 km/h N 12,2 C 25,7 C 15,3 km/h
11.05.2009 16:00 26,8 C 37 % 1011,9 hPa 0,0 l/m 5,2 km/h W-SW 10,8 C 26,8 C 19,3 km/h
11.05.2009 17:00 26,4 C 39 % 1011,3 hPa 0,0 l/m 4,1 km/h NW 11,4 C 26,4 C 15,3 km/h
11.05.2009 18:00 25,2 C 45 % 1011,2 hPa 0,0 l/m 2,8 km/h N-NO 12,2 C 25,2 C 7,6 km/h
11.05.2009 19:00 23,9 C 50 % 1011,5 hPa 0,0 l/m 3,6 km/h N-NW 12,8 C 23,9 C 8,9 km/h
11.05.2009 20:00 21,7 C 58 % 1011,9 hPa 0,0 l/m 1,7 km/h N-NW 13,1 C 21,7 C 5,2 km/h
11.05.2009 21:00 19,5 C 68 % 1012,9 hPa 0,0 l/m 1,4 km/h N-NO 13,5 C 19,5 C 5,6 km/h
11.05.2009 22:00 18,8 C 69 % 1014,1 hPa 0,0 l/m 2,9 km/h N-NO 12,9 C 18,8 C 7,6 km/h
11.05.2009 23:00 16,6 C 78 % 1015,3 hPa 2,4 l/m 5,2 km/h N-NW 12,7 C 16,3 C 14,1 km/h
12.05.2009 00:00 15,0 C 89 % 1015,9 hPa 3,0 l/m 0,7 km/h S 13,1 C 15,0 C 4,8 km/h
12.05.2009 01:00 14,7 C 90 % 1014,6 hPa 2,1 l/m 1,3 km/h SW 13,1 C 14,7 C 6,5 km/h
12.05.2009 02:00 14,5 C 92 % 1014,3 hPa 0,0 l/m 0,2 km/h N 13,1 C 14,5 C 1,6 km/h
12.05.2009 03:00 13,9 C 92 % 1014,7 hPa 0,0 l/m 0,0 km/h N 12,7 C 13,9 C 0,4 km/h
12.05.2009 04:00 13,6 C 93 % 1015,1 hPa 0,0 l/m 0,2 km/h N 12,5 C 13,6 C 2,0 km/h
12.05.2009 05:00 13,7 C 93 % 1015,5 hPa 0,0 l/m 0,5 km/h NO 12,5 C 13,7 C 2,8 km/h
12.05.2009 06:00 13,2 C 88 % 1016,2 hPa 0,3 l/m 1,2 km/h NO 11,2 C 13,2 C 4,4 km/h
12.05.2009 07:00 13,1 C 86 % 1016,9 hPa 0,3 l/m 0,9 km/h NO 10,8 C 13,1 C 3,7 km/h
12.05.2009 08:00 12,5 C 89 % 1017,3 hPa 1,2 l/m 1,6 km/h N-NO 10,7 C 12,5 C 5,6 km/h
12.05.2009 09:00 12,9 C 88 % 1017,8 hPa 0,0 l/m 1,6 km/h N-NO 10,9 C 12,9 C 5,6 km/h
12.05.2009 10:00 13,0 C 86 % 1018,6 hPa 0,0 l/m 4,0 km/h NW 10,6 C 13,0 C 14,5 km/h
12.05.2009 11:00 13,6 C 85 % 1019,0 hPa 0,0 l/m 3,2 km/h N-NO 11,2 C 13,6 C 12,1 km/h
12.05.2009 12:00 13,8 C 82 % 1019,5 hPa 0,0 l/m 4,0 km/h N-NW 10,7 C 13,8 C 13,7 km/h
12.05.2009 13:00 14,4 C 78 % 1019,6 hPa 0,0 l/m 5,6 km/h NW 10,6 C 14,4 C 16,1 km/h
12.05.2009 14:00 14,9 C 75 % 1019,8 hPa 0,0 l/m 6,4 km/h NW 10,5 C 14,9 C 13,7 km/h
12.05.2009 15:00 15,4 C 71 % 1019,5 hPa 0,0 l/m 5,6 km/h NW 10,2 C 15,5 C 15,3 km/h
12.05.2009 16:00 15,0 C 73 % 1019,7 hPa 0,0 l/m 5,6 km/h NW 10,2 C 15,0 C 16,1 km/h
12.05.2009 17:00 14,6 C 73 % 1019,8 hPa 0,0 l/m 1,6 km/h NW 9,9 C 14,6 C 8,0 km/h
12.05.2009 18:00 13,9 C 78 % 1020,0 hPa 0,0 l/m 3,2 km/h NW 10,1 C 13,9 C 8,9 km/h
12.05.2009 19:00 13,6 C 82 % 1019,8 hPa 0,0 l/m 0,8 km/h N 10,6 C 13,6 C 8,9 km/h
12.05.2009 20:00 13,1 C 83 % 1020,2 hPa 0,0 l/m 0,0 km/h N 10,3 C 13,1 C 5,6 km/h
12.05.2009 21:00 12,8 C 83 % 1020,5 hPa 0,0 l/m 0,0 km/h N 9,8 C 12,8 C 3,2 km/h
12.05.2009 22:00 12,6 C 82 % 1020,8 hPa 0,0 l/m 0,0 km/h N 9,7 C 12,6 C 7,3 km/h
12.05.2009 23:00 12,5 C 82 % 1021,2 hPa 0,0 l/m 0,0 km/h N 9,5 C 12,5 C 3,2 km/h
13.05.2009 00:00 12,1 C 83 % 1021,3 hPa 0,0 l/m 0,0 km/h N 9,3 C 12,1 C 1,6 km/h
13.05.2009 01:00 11,3 C 87 % 1021,0 hPa 0,0 l/m 0,0 km/h N 9,1 C 11,3 C 0,8 km/h
13.05.2009 02:00 11,6 C 84 % 1020,8 hPa 0,0 l/m 0,0 km/h N 8,8 C 11,6 C 0,8 km/h
13.05.2009 03:00 11,4 C 83 % 1020,5 hPa 0,0 l/m 0,0 km/h N 8,5 C 11,4 C 0,0 km/h
13.05.2009 04:00 11,4 C 73 % 1020,5 hPa 0,0 l/m 0,0 km/h N 6,6 C 11,4 C 0,8 km/h
13.05.2009 05:00 11,1 C 76 % 1020,6 hPa 0,0 l/m 0,0 km/h SW 7,0 C 11,1 C 1,6 km/h
13.05.2009 06:00 10,7 C 84 % 1020,6 hPa 0,0 l/m 0,5 km/h N 8,0 C 10,7 C 2,1 km/h
13.05.2009 07:00 10,8 C 83 % 1020,6 hPa 0,0 l/m 0,1 km/h N 8,0 C 10,8 C 3,2 km/h
13.05.2009 08:00 10,9 C 80 % 1021,0 hPa 0,0 l/m 0,0 km/h N 7,6 C 10,9 C 1,6 km/h
13.05.2009 09:00 10,6 C 79 % 1021,1 hPa 0,6 l/m 0,0 km/h N 7,1 C 10,6 C 0,0 km/h
13.05.2009 10:00 10,6 C 79 % 1021,5 hPa 0,6 l/m 0,8 km/h N-NW 7,2 C 10,6 C 5,6 km/h
13.05.2009 11:00 11,1 C 71 % 1021,4 hPa 0,0 l/m 0,0 km/h N-NO 6,1 C 11,1 C 4,0 km/h
13.05.2009 12:00 11,8 C 64 % 1021,2 hPa 0,3 l/m 1,6 km/h NO 5,2 C 11,8 C 6,4 km/h
13.05.2009 13:00 12,8 C 59 % 1020,8 hPa 0,0 l/m 1,6 km/h N-NO 4,9 C 12,8 C 5,6 km/h
13.05.2009 14:00 13,6 C 58 % 1020,3 hPa 0,0 l/m 1,6 km/h NO 5,4 C 13,6 C 5,6 km/h
13.05.2009 15:00 13,9 C 57 % 1019,8 hPa 0,0 l/m 1,6 km/h SO 5,5 C 13,9 C 4,8 km/h
13.05.2009 16:00 14,4 C 55 % 1019,2 hPa 0,0 l/m 0,0 km/h N 5,4 C 14,4 C 4,8 km/h
13.05.2009 17:00 14,8 C 57 % 1018,5 hPa 0,0 l/m 0,8 km/h S 6,3 C 14,8 C 6,4 km/h
13.05.2009 18:00 14,6 C 56 % 1018,1 hPa 0,0 l/m 2,6 km/h S-SO 6,0 C 14,6 C 9,1 km/h
13.05.2009 19:00 13,8 C 60 % 1017,8 hPa 0,0 l/m 2,8 km/h S 6,2 C 13,8 C 11,7 km/h
13.05.2009 20:00 12,3 C 68 % 1017,5 hPa 0,0 l/m 0,4 km/h N 6,6 C 12,3 C 3,6 km/h
13.05.2009 21:00 10,3 C 80 % 1017,5 hPa 0,0 l/m 0,0 km/h N 6,9 C 10,3 C 0,4 km/h
13.05.2009 22:00 9,7 C 84 % 1017,5 hPa 0,0 l/m 0,0 km/h N 7,1 C 9,7 C 0,0 km/h
13.05.2009 23:00 9,8 C 84 % 1017,1 hPa 0,0 l/m 0,0 km/h N 7,2 C 9,8 C 0,0 km/h
14.05.2009 00:00 9,6 C 86 % 1016,9 hPa 0,0 l/m 0,0 km/h N 7,3 C 9,6 C 0,0 km/h
14.05.2009 01:00 9,9 C 86 % 1016,5 hPa 0,0 l/m 0,0 km/h N 7,6 C 9,9 C 0,0 km/h
14.05.2009 02:00 10,3 C 83 % 1016,2 hPa 0,0 l/m 0,0 km/h N 7,6 C 10,3 C 0,4 km/h
14.05.2009 03:00 10,7 C 84 % 1015,9 hPa 0,0 l/m 0,0 km/h N 8,1 C 10,7 C 0,4 km/h
14.05.2009 04:00 10,8 C 88 % 1015,4 hPa 0,0 l/m 0,1 km/h N 8,8 C 10,8 C 0,8 km/h
14.05.2009 05:00 10,7 C 91 % 1014,9 hPa 0,0 l/m 0,0 km/h N 9,2 C 10,7 C 0,8 km/h
14.05.2009 06:00 10,6 C 91 % 1014,7 hPa 0,3 l/m 0,5 km/h O 9,2 C 10,6 C 2,0 km/h
14.05.2009 07:00 10,6 C 92 % 1014,5 hPa 2,4 l/m 1,4 km/h O 9,3 C 10,6 C 4,0 km/h
14.05.2009 08:00 10,5 C 93 % 1014,6 hPa 2,7 l/m 2,3 km/h O 9,3 C 10,5 C 6,0 km/h
14.05.2009 09:00 10,3 C 93 % 1014,3 hPa 1,5 l/m 1,9 km/h O-SO 9,2 C 10,3 C 6,8 km/h
14.05.2009 10:00 10,7 C 93 % 1014,1 hPa 0,0 l/m 1,2 km/h O 9,6 C 10,7 C 4,8 km/h
14.05.2009 11:00 10,6 C 92 % 1014,1 hPa 0,3 l/m 0,8 km/h O 9,4 C 10,6 C 5,6 km/h
14.05.2009 12:00 10,6 C 91 % 1014,3 hPa 0,3 l/m 2,4 km/h O 9,2 C 10,6 C 7,2 km/h
14.05.2009 13:00 10,3 C 91 % 1014,0 hPa 0,0 l/m 3,3 km/h O 8,9 C 10,3 C 8,0 km/h
14.05.2009 14:00 10,1 C 92 % 1013,8 hPa 0,0 l/m 3,5 km/h O 8,8 C 10,1 C 8,1 km/h
14.05.2009 15:00 10,0 C 93 % 1013,5 hPa 0,0 l/m 2,7 km/h O 8,9 C 10,0 C 7,2 km/h
14.05.2009 16:00 9,6 C 93 % 1013,5 hPa 0,0 l/m 3,8 km/h O 8,6 C 9,6 C 8,9 km/h
14.05.2009 17:00 9,3 C 93 % 1013,7 hPa 0,3 l/m 2,9 km/h O 8,2 C 9,3 C 7,2 km/h
14.05.2009 18:00 8,9 C 95 % 1013,4 hPa 0,3 l/m 2,0 km/h O-SO 8,1 C 8,9 C 6,4 km/h
14.05.2009 19:00 8,8 C 94 % 1013,5 hPa 0,3 l/m 0,9 km/h N 7,9 C 8,8 C 4,4 km/h
14.05.2009 20:00 8,6 C 94 % 1013,7 hPa 0,3 l/m 0,3 km/h N 7,7 C 8,6 C 3,6 km/h
14.05.2009 21:00 8,6 C 94 % 1013,9 hPa 0,0 l/m 0,3 km/h N 7,7 C 8,6 C 2,4 km/h
14.05.2009 22:00 8,7 C 94 % 1013,7 hPa 0,3 l/m 0,2 km/h N 7,7 C 8,7 C 2,4 km/h
14.05.2009 23:00 8,8 C 94 % 1013,5 hPa 0,0 l/m 0,1 km/h N 7,8 C 8,8 C 1,6 km/h
15.05.2009 00:00 8,8 C 94 % 1013,4 hPa 0,0 l/m 0,1 km/h N 7,9 C 8,8 C 2,0 km/h
15.05.2009 01:00 8,8 C 94 % 1012,9 hPa 0,0 l/m 0,2 km/h N 7,9 C 8,8 C 2,8 km/h
15.05.2009 02:00 8,8 C 95 % 1012,6 hPa 0,0 l/m 0,3 km/h N 8,0 C 8,8 C 2,4 km/h
15.05.2009 03:00 8,8 C 95 % 1012,3 hPa 0,0 l/m 0,2 km/h N 8,0 C 8,8 C 2,8 km/h
15.05.2009 04:00 8,9 C 95 % 1012,1 hPa 0,0 l/m 0,1 km/h N 8,1 C 8,9 C 1,6 km/h
15.05.2009 05:00 8,9 C 95 % 1011,9 hPa 0,0 l/m 0,2 km/h N 8,2 C 8,9 C 2,4 km/h
15.05.2009 06:00 9,0 C 95 % 1012,0 hPa 0,0 l/m 0,2 km/h N 8,2 C 9,0 C 2,1 km/h
15.05.2009 07:00 9,1 C 95 % 1012,2 hPa 0,3 l/m 0,4 km/h O 8,3 C 9,1 C 3,7 km/h
15.05.2009 08:00 9,4 C 94 % 1012,3 hPa 0,0 l/m 0,6 km/h N 8,5 C 9,4 C 4,3 km/h
15.05.2009 09:00 10,0 C 93 % 1012,0 hPa 0,0 l/m 0,5 km/h O-SO 8,9 C 10,0 C 3,6 km/h
15.05.2009 10:00 11,0 C 88 % 1011,7 hPa 0,0 l/m 1,4 km/h O 9,1 C 11,0 C 5,6 km/h
15.05.2009 11:00 12,0 C 84 % 1011,5 hPa 0,0 l/m 1,1 km/h O 9,4 C 12,0 C 6,0 km/h
15.05.2009 12:00 12,8 C 84 % 1011,2 hPa 0,0 l/m 0,7 km/h O 10,2 C 12,8 C 5,2 km/h
15.05.2009 13:00 13,8 C 81 % 1010,8 hPa 0,0 l/m 1,6 km/h O 10,7 C 13,8 C 6,0 km/h
15.05.2009 14:00 14,8 C 80 % 1010,6 hPa 0,0 l/m 0,6 km/h O-SO 11,4 C 14,8 C 4,4 km/h
15.05.2009 15:00 15,6 C 78 % 1010,0 hPa 0,0 l/m 1,1 km/h O 11,9 C 15,6 C 4,8 km/h
15.05.2009 16:00 16,4 C 78 % 1009,6 hPa 0,0 l/m 0,6 km/h N 12,5 C 16,4 C 3,6 km/h
15.05.2009 17:00 16,8 C 77 % 1009,4 hPa 0,0 l/m 0,4 km/h N 12,7 C 16,8 C 3,2 km/h
15.05.2009 18:00 17,0 C 78 % 1009,1 hPa 0,0 l/m 0,0 km/h N 13,0 C 17,0 C 1,6 km/h
15.05.2009 19:00 16,8 C 80 % 1008,9 hPa 0,0 l/m 0,0 km/h N 13,3 C 16,8 C 1,6 km/h
15.05.2009 20:00 15,4 C 85 % 1008,8 hPa 0,0 l/m 0,0 km/h N 12,9 C 15,4 C 0,4 km/h
15.05.2009 21:00 14,1 C 91 % 1008,8 hPa 0,0 l/m 0,0 km/h N 12,6 C 14,1 C 0,0 km/h
15.05.2009 22:00 13,7 C 92 % 1008,5 hPa 0,0 l/m 0,0 km/h N 12,4 C 13,7 C 0,4 km/h
15.05.2009 23:00 12,9 C 93 % 1008,1 hPa 0,0 l/m 0,0 km/h N 11,7 C 12,9 C 0,4 km/h
16.05.2009 00:00 12,9 C 93 % 1007,9 hPa 0,0 l/m 0,0 km/h N 11,9 C 12,9 C 1,6 km/h
16.05.2009 01:00 13,4 C 93 % 1007,6 hPa 0,0 l/m 0,2 km/h N 12,3 C 13,4 C 2,0 km/h
16.05.2009 02:00 12,8 C 93 % 1007,8 hPa 0,0 l/m 0,2 km/h N 11,7 C 12,8 C 2,4 km/h
16.05.2009 03:00 13,0 C 93 % 1008,7 hPa 0,0 l/m 0,9 km/h W 11,9 C 13,0 C 6,0 km/h
16.05.2009 04:00 13,5 C 90 % 1009,2 hPa 0,0 l/m 0,8 km/h N 11,9 C 13,5 C 4,8 km/h
16.05.2009 05:00 14,5 C 87 % 1009,5 hPa 0,0 l/m 2,3 km/h S 12,4 C 14,5 C 12,9 km/h
16.05.2009 06:00 15,9 C 79 % 1010,3 hPa 0,0 l/m 2,8 km/h NO 12,3 C 15,9 C 13,3 km/h
16.05.2009 07:00 16,1 C 77 % 1011,5 hPa 0,0 l/m 1,6 km/h S-SW 12,1 C 16,1 C 10,0 km/h
16.05.2009 08:00 16,5 C 77 % 1012,3 hPa 0,0 l/m 1,5 km/h SW 12,5 C 16,5 C 10,9 km/h
16.05.2009 09:00 16,2 C 77 % 1013,1 hPa 0,0 l/m 3,1 km/h NW 12,1 C 16,2 C 13,3 km/h
16.05.2009 10:00 15,1 C 78 % 1014,2 hPa 0,0 l/m 3,7 km/h SO 11,2 C 15,1 C 16,1 km/h
16.05.2009 11:00 14,4 C 77 % 1015,0 hPa 0,0 l/m 5,5 km/h W-NW 10,4 C 14,4 C 20,9 km/h
16.05.2009 12:00 14,5 C 78 % 1015,6 hPa 0,0 l/m 4,4 km/h NW 10,7 C 14,5 C 18,9 km/h
16.05.2009 13:00 15,1 C 78 % 1015,7 hPa 0,0 l/m 2,1 km/h N-NW 11,3 C 15,1 C 10,9 km/h
16.05.2009 14:00 16,7 C 72 % 1015,9 hPa 0,0 l/m 5,8 km/h N-NW 11,5 C 16,5 C 16,1 km/h
16.05.2009 15:00 17,0 C 70 % 1015,9 hPa 0,0 l/m 5,6 km/h N-NW 11,4 C 17,0 C 13,3 km/h
16.05.2009 16:00 17,6 C 66 % 1016,2 hPa 0,0 l/m 5,1 km/h N-NO 11,1 C 17,6 C 10,1 km/h
16.05.2009 17:00 17,6 C 66 % 1016,5 hPa 0,0 l/m 2,6 km/h NW 11,1 C 17,6 C 6,8 km/h
16.05.2009 18:00 17,3 C 67 % 1016,5 hPa 0,0 l/m 0,6 km/h NW 11,2 C 17,3 C 4,4 km/h
16.05.2009 19:00 17,4 C 67 % 1016,7 hPa 0,0 l/m 0,1 km/h N 11,2 C 17,4 C 1,2 km/h
16.05.2009 20:00 15,9 C 76 % 1017,2 hPa 0,0 l/m 0,1 km/h N 11,5 C 15,9 C 0,8 km/h
16.05.2009 21:00 13,3 C 87 % 1017,8 hPa 0,0 l/m 0,0 km/h N 11,2 C 13,3 C 1,2 km/h
16.05.2009 22:00 12,3 C 90 % 1018,4 hPa 0,0 l/m 0,0 km/h N 10,7 C 12,3 C 1,2 km/h
16.05.2009 23:00 12,1 C 91 % 1018,6 hPa 0,0 l/m 0,0 km/h N 10,7 C 12,1 C 1,6 km/h
17.05.2009 00:00 11,7 C 91 % 1018,7 hPa 0,0 l/m 0,0 km/h N 10,3 C 11,7 C 0,8 km/h
17.05.2009 01:00 11,2 C 91 % 1018,7 hPa 0,0 l/m 0,0 km/h N 9,8 C 11,2 C 0,0 km/h
17.05.2009 02:00 10,1 C 92 % 1018,8 hPa 0,0 l/m 0,1 km/h N 8,9 C 10,1 C 1,6 km/h
17.05.2009 03:00 9,9 C 93 % 1019,1 hPa 0,0 l/m 0,0 km/h N 8,7 C 9,9 C 1,6 km/h
17.05.2009 04:00 10,2 C 92 % 1019,1 hPa 0,0 l/m 0,2 km/h N 8,9 C 10,2 C 4,0 km/h
17.05.2009 05:00 9,9 C 91 % 1019,5 hPa 0,0 l/m 0,1 km/h N 8,5 C 9,9 C 2,8 km/h
17.05.2009 06:00 10,1 C 91 % 1019,5 hPa 0,0 l/m 0,2 km/h N 8,7 C 10,1 C 1,6 km/h
17.05.2009 07:00 11,8 C 89 % 1019,5 hPa 0,0 l/m 0,1 km/h N 10,0 C 11,8 C 1,6 km/h
17.05.2009 08:00 14,3 C 84 % 1019,4 hPa 0,0 l/m 0,2 km/h N 11,6 C 14,3 C 2,0 km/h
17.05.2009 09:00 16,8 C 76 % 1019,3 hPa 0,0 l/m 0,5 km/h S 12,4 C 16,8 C 5,2 km/h
17.05.2009 10:00 18,5 C 71 % 1019,0 hPa 0,0 l/m 2,0 km/h O-SO 13,1 C 18,5 C 8,4 km/h
17.05.2009 11:00 19,7 C 66 % 1018,5 hPa 0,0 l/m 3,4 km/h O 13,0 C 19,7 C 10,1 km/h
17.05.2009 12:00 19,6 C 66 % 1018,0 hPa 0,0 l/m 4,0 km/h O-SO 13,0 C 19,6 C 11,3 km/h
17.05.2009 13:00 21,2 C 64 % 1017,3 hPa 0,0 l/m 3,5 km/h O 14,1 C 21,2 C 9,7 km/h
17.05.2009 14:00 22,2 C 62 % 1016,8 hPa 0,0 l/m 4,4 km/h O 14,5 C 22,2 C 10,1 km/h
17.05.2009 15:00 22,9 C 60 % 1016,1 hPa 0,0 l/m 5,3 km/h O 14,8 C 22,9 C 11,7 km/h
17.05.2009 16:00 23,7 C 60 % 1015,4 hPa 0,0 l/m 4,7 km/h O 15,5 C 23,7 C 10,5 km/h
17.05.2009 17:00 23,9 C 61 % 1014,8 hPa 0,0 l/m 5,6 km/h O 15,8 C 23,9 C 10,9 km/h
17.05.2009 18:00 23,7 C 62 % 1014,4 hPa 0,0 l/m 3,5 km/h O-SO 15,9 C 23,7 C 7,6 km/h
17.05.2009 19:00 23,4 C 60 % 1014,3 hPa 0,0 l/m 1,3 km/h O-SO 15,1 C 23,4 C 4,8 km/h
17.05.2009 20:00 21,2 C 71 % 1014,4 hPa 0,0 l/m 0,5 km/h N 15,6 C 21,2 C 2,0 km/h
17.05.2009 21:00 17,6 C 85 % 1014,9 hPa 0,0 l/m 0,0 km/h N 14,9 C 17,6 C 0,0 km/h
17.05.2009 22:00 16,1 C 88 % 1014,8 hPa 0,0 l/m 0,0 km/h N 14,2 C 16,1 C 0,0 km/h
17.05.2009 23:00 15,2 C 90 % 1014,5 hPa 0,0 l/m 0,0 km/h N 13,6 C 15,2 C 0,8 km/h
Min-Datum _ 14.05.09 11.05.09 16.05.09 - 11.05.09 - 13.05.09 14.05.09 11.05.09
_ Min-Zeit 20:30 16:30 01:30 - 00:00 - 13:30 20:45 03:00
Minimum _ 8,5 C 33 % 1007,4 hPa - 0,0 km/h - 4,6 C 8,5 C 0,0 km/h
Max-Datum _ 11.05.09 14.05.09 13.05.09 12.05.09 11.05.09 - 17.05.09 11.05.09 11.05.09
_ Max-Zeit 16:15 18:15 10:30 00:00 23:00 - 18:30 14:30 16:30
Maximum _ 27,4 C 98 % 1021,7 hPa 3,0 l/m 7,8 km/h
N-NW
- 16,3 C 27,1 C 25,7 km/h
W-SW
Durchschnitt _ 14,2 C 80 % 1015,5 hPa #20,1 l/m 1,4 km/h O 10,5 C 14,2 C 5,3 km/h